createdAt,value
2018-07-20T00:00:57.644Z,15.90
2018-07-20T00:01:57.535Z,15.92
2018-07-20T00:02:57.447Z,15.83
2018-07-20T00:03:57.342Z,15.90
2018-07-20T00:04:57.251Z,15.84
2018-07-20T00:05:57.147Z,15.83
2018-07-20T00:06:57.057Z,15.91
2018-07-20T00:07:57.007Z,15.84
2018-07-20T00:08:56.862Z,15.83
2018-07-20T00:09:56.761Z,15.83
2018-07-20T00:10:56.671Z,15.79
2018-07-20T00:11:56.569Z,15.86
2018-07-20T00:12:56.478Z,15.79
2018-07-20T00:13:56.384Z,15.72
2018-07-20T00:14:56.281Z,15.77
2018-07-20T00:15:56.189Z,15.68
2018-07-20T00:16:56.088Z,15.68
2018-07-20T00:17:55.998Z,15.59
2018-07-20T00:18:55.895Z,15.57
2018-07-20T00:19:55.806Z,15.49
2018-07-20T00:20:55.699Z,15.51
2018-07-20T00:21:55.611Z,15.46
2018-07-20T00:22:55.760Z,15.37
2018-07-20T00:23:55.415Z,15.46
2018-07-20T00:24:55.312Z,15.49
2018-07-20T00:25:55.220Z,15.37
2018-07-20T00:26:55.128Z,15.43
2018-07-20T00:27:55.026Z,15.40
2018-07-20T00:28:54.923Z,15.29
2018-07-20T00:29:54.833Z,15.33
2018-07-20T00:30:54.741Z,15.27
2018-07-20T00:31:54.638Z,15.28
2018-07-20T00:32:54.548Z,15.19
2018-07-20T00:33:54.443Z,15.28
2018-07-20T00:34:54.351Z,15.27
2018-07-20T00:35:54.248Z,15.15
2018-07-20T00:36:54.158Z,15.27
2018-07-20T00:37:54.054Z,15.28
2018-07-20T00:38:53.963Z,15.19
2018-07-20T00:39:53.873Z,15.29
2018-07-20T00:40:53.770Z,15.27
2018-07-20T00:41:53.668Z,15.15
2018-07-20T00:42:53.877Z,15.25
2018-07-20T00:43:53.474Z,15.25
2018-07-20T00:44:53.382Z,15.24
2018-07-20T00:45:53.277Z,15.17
2018-07-20T00:46:53.187Z,15.11
2018-07-20T00:47:53.085Z,15.19
2018-07-20T00:48:52.997Z,15.19
2018-07-20T00:49:52.892Z,15.17
2018-07-20T00:50:52.801Z,15.29
2018-07-20T00:51:52.698Z,15.15
2018-07-20T00:52:52.607Z,15.14
2018-07-20T00:53:52.516Z,15.15
2018-07-20T00:54:52.413Z,15.10
2018-07-20T00:55:52.311Z,15.07
2018-07-20T00:56:52.219Z,15.00
2018-07-20T00:57:52.126Z,15.03
2018-07-20T00:58:52.022Z,15.03
2018-07-20T00:59:51.931Z,15.00
2018-07-20T01:00:51.828Z,15.03
2018-07-20T01:01:51.742Z,14.94
2018-07-20T01:02:51.635Z,14.94
2018-07-20T01:03:51.545Z,14.94
2018-07-20T01:04:51.443Z,14.92
2018-07-20T01:05:51.368Z,14.99
2018-07-20T01:06:51.245Z,14.96
2018-07-20T01:07:51.155Z,15.02
2018-07-20T01:08:51.053Z,15.07
2018-07-20T01:09:50.963Z,15.03
2018-07-20T01:10:50.859Z,14.99
2018-07-20T01:11:50.769Z,15.02
2018-07-20T01:12:50.666Z,14.86
2018-07-20T01:13:50.572Z,14.85
2018-07-20T01:14:50.469Z,14.91
2018-07-20T01:15:50.378Z,14.85
2018-07-20T01:16:50.275Z,14.88
2018-07-20T01:17:50.201Z,15.02
2018-07-20T01:18:50.100Z,14.91
2018-07-20T01:19:49.993Z,14.92
2018-07-20T01:20:49.889Z,14.91
2018-07-20T01:21:49.796Z,14.86
2018-07-20T01:22:49.692Z,14.88
2018-07-20T01:23:49.603Z,14.85
2018-07-20T01:24:49.499Z,14.84
2018-07-20T01:25:49.406Z,14.88
2018-07-20T01:26:49.303Z,14.82
2018-07-20T01:27:49.204Z,14.82
2018-07-20T01:28:49.111Z,14.78
2018-07-20T01:29:49.036Z,14.68
2018-07-20T01:30:48.921Z,14.60
2018-07-20T01:31:48.816Z,14.58
2018-07-20T01:32:48.975Z,14.60
2018-07-20T01:33:48.630Z,14.62
2018-07-20T01:34:48.527Z,14.60
2018-07-20T01:35:48.424Z,14.55
2018-07-20T01:36:48.338Z,14.51
2018-07-20T01:37:48.233Z,14.54
2018-07-20T01:38:48.141Z,14.48
2018-07-20T01:39:48.058Z,14.48
2018-07-20T01:40:47.948Z,14.45
2018-07-20T01:41:47.844Z,14.44
2018-07-20T01:42:48.003Z,14.47
2018-07-20T01:43:47.649Z,14.51
2018-07-20T01:44:47.560Z,14.33
2018-07-20T01:45:47.454Z,14.37
2018-07-20T01:46:47.363Z,14.32
2018-07-20T01:47:47.259Z,14.32
2018-07-20T01:48:47.169Z,14.25
2018-07-20T01:49:47.071Z,14.26
2018-07-20T01:50:46.976Z,14.32
2018-07-20T01:51:46.873Z,14.32
2018-07-20T01:52:46.783Z,14.32
2018-07-20T01:53:46.680Z,14.30
2018-07-20T01:54:46.586Z,14.29
2018-07-20T01:55:46.486Z,14.26
2018-07-20T01:56:46.381Z,14.30
2018-07-20T01:57:46.289Z,14.36
2018-07-20T01:58:46.187Z,14.32
2018-07-20T01:59:46.095Z,14.43
2018-07-20T02:00:45.991Z,14.29
2018-07-20T02:01:45.904Z,14.43
2018-07-20T02:02:46.100Z,14.35
2018-07-20T02:03:45.709Z,14.35
2018-07-20T02:04:45.605Z,14.40
2018-07-20T02:05:45.519Z,14.40
2018-07-20T02:06:45.410Z,14.35
2018-07-20T02:07:45.331Z,14.36
2018-07-20T02:08:45.230Z,14.37
2018-07-20T02:09:45.127Z,14.37
2018-07-20T02:10:45.024Z,14.43
2018-07-20T02:11:44.933Z,14.43
2018-07-20T02:12:44.829Z,14.37
2018-07-20T02:13:44.724Z,14.33
2018-07-20T02:14:44.633Z,14.40
2018-07-20T02:15:44.530Z,14.30
2018-07-20T02:16:44.439Z,14.43
2018-07-20T02:17:44.365Z,14.30
2018-07-20T02:18:44.247Z,14.25
2018-07-20T02:19:44.144Z,14.20
2018-07-20T02:20:44.065Z,14.29
2018-07-20T02:21:43.948Z,14.23
2018-07-20T02:22:43.846Z,14.25
2018-07-20T02:23:43.754Z,14.23
2018-07-20T02:24:43.651Z,14.14
2018-07-20T02:25:43.561Z,14.12
2018-07-20T02:26:43.457Z,14.15
2018-07-20T02:27:43.368Z,14.05
2018-07-20T02:28:43.263Z,14.07
2018-07-20T02:29:43.172Z,14.11
2018-07-20T02:30:43.070Z,14.10
2018-07-20T02:31:42.967Z,14.08
2018-07-20T02:32:43.176Z,14.05
2018-07-20T02:33:42.771Z,14.08
2018-07-20T02:34:42.679Z,14.05
2018-07-20T02:35:42.576Z,14.04
2018-07-20T02:36:42.487Z,13.99
2018-07-20T02:37:42.384Z,14.08
2018-07-20T02:38:42.293Z,14.10
2018-07-20T02:39:42.189Z,14.15
2018-07-20T02:40:42.099Z,13.97
2018-07-20T02:41:41.997Z,14.03
2018-07-20T02:42:41.891Z,14.12
2018-07-20T02:43:41.799Z,14.03
2018-07-20T02:44:41.699Z,14.03
2018-07-20T02:45:41.597Z,13.99
2018-07-20T02:46:41.503Z,14.03
2018-07-20T02:47:41.415Z,13.99
2018-07-20T02:48:41.308Z,13.92
2018-07-20T02:49:41.208Z,13.99
2018-07-20T02:50:41.116Z,13.90
2018-07-20T02:51:41.013Z,13.89
2018-07-20T02:52:40.921Z,13.97
2018-07-20T02:53:40.816Z,13.90
2018-07-20T02:54:40.726Z,13.99
2018-07-20T02:55:40.622Z,13.97
2018-07-20T02:56:40.531Z,13.95
2018-07-20T02:57:40.429Z,13.97
2018-07-20T02:58:40.327Z,13.95
2018-07-20T02:59:40.237Z,13.85
2018-07-20T03:00:40.133Z,13.89
2018-07-20T03:01:40.041Z,13.83
2018-07-20T03:02:39.938Z,13.89
2018-07-20T03:03:39.849Z,13.77
2018-07-20T03:04:39.748Z,13.92
2018-07-20T03:05:39.642Z,13.87
2018-07-20T03:06:39.548Z,13.86
2018-07-20T03:07:39.449Z,13.89
2018-07-20T03:08:39.353Z,13.81
2018-07-20T03:09:39.253Z,13.90
2018-07-20T03:10:39.162Z,13.96
2018-07-20T03:11:39.059Z,13.97
2018-07-20T03:12:38.956Z,13.92
2018-07-20T03:13:38.863Z,13.83
2018-07-20T03:14:38.760Z,13.92
2018-07-20T03:15:38.668Z,13.83
2018-07-20T03:16:38.565Z,13.97
2018-07-20T03:17:38.480Z,13.95
2018-07-20T03:18:38.373Z,13.95
2018-07-20T03:19:38.275Z,13.90
2018-07-20T03:20:38.179Z,13.95
2018-07-20T03:21:38.075Z,13.96
2018-07-20T03:22:37.983Z,13.95
2018-07-20T03:23:37.881Z,13.90
2018-07-20T03:24:37.801Z,13.97
2018-07-20T03:25:37.687Z,13.96
2018-07-20T03:26:37.598Z,13.97
2018-07-20T03:27:37.494Z,13.90
2018-07-20T03:28:37.391Z,13.92
2018-07-20T03:29:37.297Z,13.95
2018-07-20T03:30:37.212Z,13.96
2018-07-20T03:31:37.104Z,14.00
2018-07-20T03:32:37.029Z,14.05
2018-07-20T03:33:36.921Z,14.10
2018-07-20T03:34:36.806Z,14.04
2018-07-20T03:35:36.703Z,14.14
2018-07-20T03:36:36.612Z,14.12
2018-07-20T03:37:36.514Z,14.12
2018-07-20T03:38:36.419Z,14.28
2018-07-20T03:39:36.316Z,14.20
2018-07-20T03:40:36.227Z,14.30
2018-07-20T03:41:36.120Z,14.23
2018-07-20T03:42:36.028Z,14.29
2018-07-20T03:43:35.925Z,14.43
2018-07-20T03:44:35.822Z,14.45
2018-07-20T03:45:35.735Z,14.37
2018-07-20T03:46:35.631Z,14.43
2018-07-20T03:47:35.790Z,14.45
2018-07-20T03:48:35.438Z,14.45
2018-07-20T03:49:35.346Z,14.58
2018-07-20T03:50:35.244Z,14.60
2018-07-20T03:51:35.141Z,14.60
2018-07-20T03:52:35.055Z,14.59
2018-07-20T03:53:34.944Z,14.65
2018-07-20T03:54:34.852Z,14.65
2018-07-20T03:55:34.749Z,14.69
2018-07-20T03:56:34.662Z,14.69
2018-07-20T03:57:34.856Z,14.63
2018-07-20T03:58:34.482Z,14.79
2018-07-20T03:59:34.363Z,14.86
2018-07-20T04:00:34.273Z,14.97
2018-07-20T04:01:34.166Z,14.99
2018-07-20T04:02:34.120Z,15.02
2018-07-20T04:03:33.972Z,15.15
2018-07-20T04:04:33.870Z,15.07
2018-07-20T04:05:33.777Z,15.18
2018-07-20T04:06:33.675Z,15.27
2018-07-20T04:07:33.584Z,15.24
2018-07-20T04:08:33.481Z,15.35
2018-07-20T04:09:33.391Z,15.40
2018-07-20T04:10:33.290Z,15.39
2018-07-20T04:11:33.197Z,15.42
2018-07-20T04:12:33.093Z,15.42
2018-07-20T04:13:33.001Z,15.43
2018-07-20T04:14:32.897Z,15.49
2018-07-20T04:15:32.810Z,15.58
2018-07-20T04:16:32.705Z,15.57
2018-07-20T04:17:32.615Z,15.64
2018-07-20T04:18:32.512Z,15.67
2018-07-20T04:19:32.422Z,15.90
2018-07-20T04:20:32.323Z,16.09
2018-07-20T04:21:32.226Z,16.15
2018-07-20T04:22:32.127Z,16.15
2018-07-20T04:23:32.033Z,16.15
2018-07-20T04:24:31.930Z,16.20
2018-07-20T04:25:31.836Z,16.26
2018-07-20T04:26:31.734Z,16.47
2018-07-20T04:27:31.643Z,16.53
2018-07-20T04:28:31.552Z,16.58
2018-07-20T04:29:31.450Z,16.61
2018-07-20T04:30:31.360Z,16.65
2018-07-20T04:31:31.256Z,16.66
2018-07-20T04:32:31.166Z,16.64
2018-07-20T04:33:31.062Z,16.68
2018-07-20T04:34:30.970Z,16.74
2018-07-20T04:35:30.867Z,16.72
2018-07-20T04:36:30.826Z,16.79
2018-07-20T04:37:30.686Z,17.08
2018-07-20T04:38:30.581Z,17.30
2018-07-20T04:39:30.490Z,17.64
2018-07-20T04:40:30.386Z,18.07
2018-07-20T04:41:30.298Z,18.56
2018-07-20T04:42:30.207Z,18.98
2018-07-20T04:43:30.104Z,19.27
2018-07-20T04:44:30.013Z,19.58
2018-07-20T04:45:29.908Z,19.84
2018-07-20T04:46:29.829Z,20.02
2018-07-20T04:47:29.977Z,20.25
2018-07-20T04:48:29.623Z,20.39
2018-07-20T04:49:29.534Z,20.67
2018-07-20T04:50:29.444Z,20.75
2018-07-20T04:51:29.340Z,20.85
2018-07-20T04:52:29.249Z,20.96
2018-07-20T04:53:29.072Z,21.20
2018-07-20T04:54:28.981Z,21.39
2018-07-20T04:55:28.890Z,21.64
2018-07-20T04:56:28.788Z,21.62
2018-07-20T04:57:28.780Z,21.83
2018-07-20T04:58:28.691Z,21.88
2018-07-20T04:59:28.587Z,22.11
2018-07-20T05:00:28.497Z,22.20
2018-07-20T05:01:28.408Z,22.26
2018-07-20T05:02:28.316Z,22.53
2018-07-20T05:03:28.225Z,22.55
2018-07-20T05:04:28.123Z,22.68
2018-07-20T05:05:28.029Z,22.83
2018-07-20T05:06:27.939Z,23.08
2018-07-20T05:07:27.848Z,23.31
2018-07-20T05:08:27.757Z,23.34
2018-07-20T05:09:27.666Z,23.54
2018-07-20T05:10:27.580Z,23.54
2018-07-20T05:11:27.500Z,23.46
2018-07-20T05:12:27.380Z,23.21
2018-07-20T05:13:27.292Z,23.27
2018-07-20T05:14:27.201Z,23.27
2018-07-20T05:15:27.111Z,23.40
2018-07-20T05:16:27.020Z,23.58
2018-07-20T05:17:27.177Z,23.63
2018-07-20T05:18:26.835Z,23.84
2018-07-20T05:19:26.746Z,23.99
2018-07-20T05:20:26.654Z,24.45
2018-07-20T05:21:26.566Z,24.47
2018-07-20T05:22:26.475Z,24.61
2018-07-20T05:23:26.384Z,24.77
2018-07-20T05:24:26.296Z,24.84
2018-07-20T05:25:26.201Z,24.89
2018-07-20T05:26:26.109Z,25.03
2018-07-20T05:27:26.020Z,25.14
2018-07-20T05:28:25.927Z,25.25
2018-07-20T05:29:25.840Z,25.18
2018-07-20T05:30:25.749Z,25.43
2018-07-20T05:31:25.659Z,25.51
2018-07-20T05:32:25.567Z,25.80
2018-07-20T05:33:25.477Z,25.96
2018-07-20T05:34:25.383Z,25.98
2018-07-20T05:35:25.299Z,26.03
2018-07-20T05:36:25.202Z,26.03
2018-07-20T05:37:25.113Z,26.15
2018-07-20T05:38:25.024Z,25.95
2018-07-20T05:39:24.944Z,25.99
2018-07-20T05:40:24.854Z,25.46
2018-07-20T05:41:24.762Z,25.60
2018-07-20T05:42:24.671Z,26.00
2018-07-20T05:43:24.580Z,26.16
2018-07-20T05:44:24.494Z,26.29
2018-07-20T05:45:24.396Z,26.56
2018-07-20T05:46:24.307Z,26.70
2018-07-20T05:47:24.228Z,26.88
2018-07-20T05:48:24.139Z,26.97
2018-07-20T05:49:24.049Z,27.37
2018-07-20T05:50:23.957Z,27.22
2018-07-20T05:51:23.867Z,26.74
2018-07-20T05:52:23.776Z,26.13
2018-07-20T05:53:23.730Z,25.83
2018-07-20T05:54:23.607Z,26.23
2018-07-20T05:55:23.513Z,26.70
2018-07-20T05:56:23.424Z,26.78
2018-07-20T05:57:23.333Z,26.90
2018-07-20T05:58:23.256Z,26.85
2018-07-20T05:59:23.164Z,26.90
2018-07-20T06:00:23.074Z,26.80
2018-07-20T06:01:22.985Z,27.05
2018-07-20T06:02:22.892Z,27.27
2018-07-20T06:03:22.814Z,26.95
2018-07-20T06:04:22.724Z,27.00
2018-07-20T06:05:22.630Z,27.03
2018-07-20T06:06:22.540Z,26.85
2018-07-20T06:07:22.457Z,27.12
2018-07-20T06:08:22.370Z,27.12
2018-07-20T06:09:22.282Z,27.17
2018-07-20T06:10:22.191Z,26.95
2018-07-20T06:11:22.101Z,27.20
2018-07-20T06:12:22.023Z,26.90
2018-07-20T06:13:21.931Z,27.22
2018-07-20T06:14:21.842Z,27.68
2018-07-20T06:15:21.750Z,27.98
2018-07-20T06:16:21.671Z,27.17
2018-07-20T06:17:21.828Z,26.78
2018-07-20T06:18:21.487Z,27.35
2018-07-20T06:19:21.409Z,27.03
2018-07-20T06:20:21.318Z,27.33
2018-07-20T06:21:21.229Z,26.58
2018-07-20T06:22:21.151Z,26.66
2018-07-20T06:23:21.063Z,26.80
2018-07-20T06:24:20.969Z,27.47
2018-07-20T06:25:20.879Z,27.93
2018-07-20T06:26:20.799Z,27.11
2018-07-20T06:27:20.707Z,27.00
2018-07-20T06:28:20.617Z,27.73
2018-07-20T06:29:20.541Z,28.08
2018-07-20T06:30:20.447Z,27.71
2018-07-20T06:31:20.357Z,27.63
2018-07-20T06:32:20.279Z,27.93
2018-07-20T06:33:20.189Z,28.29
2018-07-20T06:34:20.099Z,28.49
2018-07-20T06:35:20.021Z,28.82
2018-07-20T06:36:19.930Z,28.76
2018-07-20T06:37:20.088Z,28.76
2018-07-20T06:38:19.758Z,28.63
2018-07-20T06:39:19.667Z,28.78
2018-07-20T06:40:19.577Z,28.76
2018-07-20T06:41:19.502Z,28.94
2018-07-20T06:42:19.409Z,28.89
2018-07-20T06:43:19.320Z,28.63
2018-07-20T06:44:19.241Z,29.04
2018-07-20T06:45:19.150Z,29.35
2018-07-20T06:46:19.071Z,29.71
2018-07-20T06:47:18.981Z,29.98
2018-07-20T06:48:18.890Z,30.24
2018-07-20T06:49:18.809Z,30.30
2018-07-20T06:50:18.731Z,30.25
2018-07-20T06:51:18.644Z,29.88
2018-07-20T06:52:18.550Z,30.08
2018-07-20T06:53:18.476Z,30.19
2018-07-20T06:54:18.383Z,29.72
2018-07-20T06:55:18.296Z,29.88
2018-07-20T06:56:18.213Z,29.90
2018-07-20T06:57:18.134Z,29.39
2018-07-20T06:58:18.046Z,29.22
2018-07-20T06:59:17.965Z,29.35
2018-07-20T07:00:17.873Z,29.59
2018-07-20T07:01:17.782Z,29.31
2018-07-20T07:02:17.954Z,28.64
2018-07-20T07:03:17.626Z,28.37
2018-07-20T07:04:17.534Z,28.44
2018-07-20T07:05:17.446Z,28.78
2018-07-20T07:06:17.368Z,28.19
2018-07-20T07:07:17.276Z,28.54
2018-07-20T07:08:17.198Z,28.48
2018-07-20T07:09:17.121Z,28.49
2018-07-20T07:10:17.027Z,28.33
2018-07-20T07:11:16.937Z,28.41
2018-07-20T07:12:16.862Z,29.19
2018-07-20T07:13:16.771Z,29.42
2018-07-20T07:14:16.692Z,29.59
2018-07-20T07:15:16.655Z,29.73
2018-07-20T07:16:16.521Z,29.91
2018-07-20T07:17:16.443Z,30.10
2018-07-20T07:18:16.354Z,29.98
2018-07-20T07:19:16.275Z,30.02
2018-07-20T07:20:16.183Z,30.34
2018-07-20T07:21:16.103Z,30.68
2018-07-20T07:22:16.037Z,30.87
2018-07-20T07:23:15.935Z,30.65
2018-07-20T07:24:15.844Z,30.73
2018-07-20T07:25:15.768Z,30.02
2018-07-20T07:26:15.689Z,29.36
2018-07-20T07:27:15.599Z,29.27
2018-07-20T07:28:15.520Z,28.81
2018-07-20T07:29:15.504Z,28.22
2018-07-20T07:30:15.349Z,27.29
2018-07-20T07:31:15.258Z,27.27
2018-07-20T07:32:15.186Z,27.55
2018-07-20T07:33:15.104Z,28.22
2018-07-20T07:34:15.013Z,28.44
2018-07-20T07:35:14.933Z,28.26
2018-07-20T07:36:14.844Z,28.81
2018-07-20T07:37:14.764Z,29.01
2018-07-20T07:38:14.675Z,29.57
2018-07-20T07:39:14.593Z,30.10
2018-07-20T07:40:14.504Z,30.05
2018-07-20T07:41:14.428Z,30.35
2018-07-20T07:42:14.453Z,30.35
2018-07-20T07:43:14.258Z,30.34
2018-07-20T07:44:14.179Z,29.79
2018-07-20T07:45:14.088Z,29.39
2018-07-20T07:46:14.009Z,28.64
2018-07-20T07:47:13.917Z,28.20
2018-07-20T07:48:13.838Z,28.17
2018-07-20T07:49:13.775Z,28.60
2018-07-20T07:50:13.671Z,29.29
2018-07-20T07:51:13.580Z,29.90
2018-07-20T07:52:13.501Z,30.34
2018-07-20T07:53:13.425Z,30.80
2018-07-20T07:54:13.335Z,31.06
2018-07-20T07:55:13.256Z,30.96
2018-07-20T07:56:13.167Z,30.61
2018-07-20T07:57:13.084Z,30.51
2018-07-20T07:58:12.993Z,30.66
2018-07-20T07:59:12.916Z,30.69
2018-07-20T08:00:12.827Z,30.87
2018-07-20T08:01:12.749Z,30.88
2018-07-20T08:02:12.657Z,30.96
2018-07-20T08:03:12.641Z,30.96
2018-07-20T08:04:12.490Z,31.18
2018-07-20T08:05:12.410Z,30.85
2018-07-20T08:06:12.331Z,30.81
2018-07-20T08:07:12.245Z,31.05
2018-07-20T08:08:12.163Z,31.29
2018-07-20T08:09:12.070Z,31.17
2018-07-20T08:10:12.005Z,30.97
2018-07-20T08:11:11.913Z,30.37
2018-07-20T08:12:11.822Z,30.59
2018-07-20T08:13:11.747Z,30.44
2018-07-20T08:14:11.656Z,30.25
2018-07-20T08:15:11.578Z,30.24
2018-07-20T08:16:11.486Z,30.37
2018-07-20T08:17:11.411Z,30.66
2018-07-20T08:18:11.315Z,30.63
2018-07-20T08:19:11.236Z,30.28
2018-07-20T08:20:11.147Z,30.00
2018-07-20T08:21:11.068Z,29.38
2018-07-20T08:22:10.977Z,29.20
2018-07-20T08:23:10.887Z,28.85
2018-07-20T08:24:10.807Z,28.14
2018-07-20T08:25:10.719Z,28.35
2018-07-20T08:26:10.653Z,28.32
2018-07-20T08:27:10.585Z,28.48
2018-07-20T08:28:10.459Z,28.52
2018-07-20T08:29:10.378Z,28.56
2018-07-20T08:30:10.288Z,28.49
2018-07-20T08:31:10.210Z,28.63
2018-07-20T08:32:10.121Z,28.54
2018-07-20T08:33:10.030Z,28.02
2018-07-20T08:34:09.940Z,28.26
2018-07-20T08:35:09.862Z,28.67
2018-07-20T08:36:09.770Z,29.16
2018-07-20T08:37:09.678Z,29.24
2018-07-20T08:38:09.601Z,29.61
2018-07-20T08:39:09.510Z,28.98
2018-07-20T08:40:09.418Z,28.91
2018-07-20T08:41:09.367Z,29.44
2018-07-20T08:42:09.248Z,29.56
2018-07-20T08:43:09.156Z,29.16
2018-07-20T08:44:09.067Z,29.61
2018-07-20T08:45:08.990Z,29.91
2018-07-20T08:46:08.888Z,30.02
2018-07-20T08:47:08.809Z,30.37
2018-07-20T08:48:08.717Z,31.03
2018-07-20T08:49:08.625Z,31.17
2018-07-20T08:50:08.534Z,31.42
2018-07-20T08:51:08.444Z,31.97
2018-07-20T08:52:08.366Z,32.23
2018-07-20T08:53:08.274Z,31.70
2018-07-20T08:54:08.201Z,30.70
2018-07-20T08:55:08.093Z,30.62
2018-07-20T08:56:08.014Z,31.09
2018-07-20T08:57:07.930Z,30.88
2018-07-20T08:58:07.834Z,30.88
2018-07-20T08:59:07.788Z,30.85
2018-07-20T09:00:07.667Z,31.06
2018-07-20T09:01:07.573Z,31.12
2018-07-20T09:02:07.510Z,30.35
2018-07-20T09:03:07.405Z,30.32
2018-07-20T09:04:07.325Z,30.30
2018-07-20T09:05:07.236Z,30.37
2018-07-20T09:06:07.158Z,30.16
2018-07-20T09:07:07.068Z,30.09
2018-07-20T09:08:06.978Z,30.31
2018-07-20T09:09:06.899Z,30.55
2018-07-20T09:10:06.824Z,30.94
2018-07-20T09:11:06.731Z,31.80
2018-07-20T09:12:06.651Z,31.92
2018-07-20T09:13:06.560Z,32.23
2018-07-20T09:14:06.481Z,31.89
2018-07-20T09:15:06.401Z,30.81
2018-07-20T09:16:06.312Z,30.69
2018-07-20T09:17:06.236Z,30.50
2018-07-20T09:18:06.144Z,30.70
2018-07-20T09:19:06.067Z,30.73
2018-07-20T09:20:05.988Z,30.84
2018-07-20T09:21:05.974Z,30.78
2018-07-20T09:22:05.821Z,30.69
2018-07-20T09:23:05.738Z,31.20
2018-07-20T09:24:05.691Z,30.81
2018-07-20T09:25:05.571Z,31.21
2018-07-20T09:26:05.493Z,31.40
2018-07-20T09:27:05.411Z,31.71
2018-07-20T09:28:05.321Z,32.07
2018-07-20T09:29:05.246Z,32.43
2018-07-20T09:30:05.167Z,32.29
2018-07-20T09:31:05.077Z,32.53
2018-07-20T09:32:04.997Z,32.45
2018-07-20T09:33:04.918Z,32.64
2018-07-20T09:34:04.878Z,32.60
2018-07-20T09:35:04.762Z,32.22
2018-07-20T09:36:04.671Z,32.12
2018-07-20T09:37:04.594Z,32.40
2018-07-20T09:38:04.516Z,32.56
2018-07-20T09:39:04.439Z,33.37
2018-07-20T09:40:04.360Z,33.96
2018-07-20T09:41:04.267Z,34.45
2018-07-20T09:42:04.189Z,34.40
2018-07-20T09:43:04.109Z,34.38
2018-07-20T09:44:04.044Z,34.42
2018-07-20T09:45:03.954Z,33.90
2018-07-20T09:46:03.876Z,33.83
2018-07-20T09:47:03.786Z,33.36
2018-07-20T09:48:03.708Z,33.28
2018-07-20T09:49:03.687Z,33.02
2018-07-20T09:50:03.549Z,33.00
2018-07-20T09:51:03.471Z,32.97
2018-07-20T09:52:03.395Z,32.51
2018-07-20T09:53:03.316Z,32.83
2018-07-20T09:54:03.239Z,33.61
2018-07-20T09:55:03.159Z,34.05
2018-07-20T09:56:03.068Z,34.38
2018-07-20T09:57:02.992Z,33.81
2018-07-20T09:58:02.911Z,33.50
2018-07-20T09:59:02.836Z,33.22
2018-07-20T10:00:02.756Z,33.00
2018-07-20T10:01:02.675Z,32.70
2018-07-20T10:02:02.597Z,32.48
2018-07-20T10:03:02.518Z,31.54
2018-07-20T10:04:02.440Z,31.03
2018-07-20T10:05:02.400Z,31.22
2018-07-20T10:06:02.298Z,31.58
2018-07-20T10:07:02.206Z,31.58
2018-07-20T10:08:02.128Z,31.73
2018-07-20T10:09:02.048Z,31.85
2018-07-20T10:10:01.959Z,31.84
2018-07-20T10:11:01.891Z,31.84
2018-07-20T10:12:01.801Z,32.12
2018-07-20T10:13:01.723Z,32.11
2018-07-20T10:14:01.645Z,31.37
2018-07-20T10:15:01.568Z,31.43
2018-07-20T10:16:01.488Z,31.22
2018-07-20T10:17:01.412Z,31.06
2018-07-20T10:18:01.333Z,31.51
2018-07-20T10:19:01.327Z,31.85
2018-07-20T10:20:01.177Z,32.27
2018-07-20T10:21:01.096Z,32.56
2018-07-20T10:22:01.019Z,32.85
2018-07-20T10:23:00.940Z,32.49
2018-07-20T10:24:00.852Z,32.40
2018-07-20T10:25:00.773Z,32.04
2018-07-20T10:26:00.695Z,32.11
2018-07-20T10:27:00.616Z,32.07
2018-07-20T10:28:00.537Z,32.00
2018-07-20T10:29:00.461Z,31.94
2018-07-20T10:30:00.392Z,32.03
2018-07-20T10:31:00.302Z,32.26
2018-07-20T10:32:00.225Z,32.12
2018-07-20T10:33:00.142Z,32.15
2018-07-20T10:34:00.067Z,32.38
2018-07-20T10:34:59.986Z,32.74
2018-07-20T10:35:59.916Z,32.51
2018-07-20T10:36:59.832Z,32.82
2018-07-20T10:37:59.754Z,33.22
2018-07-20T10:38:59.675Z,33.53
2018-07-20T10:39:59.600Z,33.99
2018-07-20T10:40:59.530Z,33.58
2018-07-20T10:41:59.452Z,34.14
2018-07-20T10:42:59.373Z,33.69
2018-07-20T10:43:59.294Z,33.77
2018-07-20T10:44:59.218Z,33.87
2018-07-20T10:45:59.140Z,33.74
2018-07-20T10:46:59.110Z,34.08
2018-07-20T10:47:58.986Z,34.21
2018-07-20T10:48:58.905Z,33.90
2018-07-20T10:49:58.825Z,34.02
2018-07-20T10:50:58.746Z,34.35
2018-07-20T10:51:58.697Z,34.30
2018-07-20T10:52:58.604Z,34.51
2018-07-20T10:53:58.525Z,34.45
2018-07-20T10:54:58.447Z,34.33
2018-07-20T10:55:58.381Z,33.32
2018-07-20T10:56:58.289Z,33.86
2018-07-20T10:57:58.209Z,34.02
2018-07-20T10:58:58.132Z,34.16
2018-07-20T10:59:58.054Z,34.43
2018-07-20T11:00:57.976Z,34.74
2018-07-20T11:01:58.161Z,35.17
2018-07-20T11:02:57.832Z,34.47
2018-07-20T11:03:57.754Z,34.42
2018-07-20T11:04:57.677Z,34.30
2018-07-20T11:05:57.599Z,34.70
2018-07-20T11:06:57.520Z,35.33
2018-07-20T11:07:57.449Z,33.90
2018-07-20T11:08:57.362Z,32.71
2018-07-20T11:09:57.284Z,32.82
2018-07-20T11:10:57.205Z,32.67
2018-07-20T11:11:57.126Z,31.81
2018-07-20T11:12:57.056Z,31.89
2018-07-20T11:13:56.984Z,31.46
2018-07-20T11:14:56.894Z,31.33
2018-07-20T11:15:56.820Z,30.97
2018-07-20T11:16:56.738Z,30.50
2018-07-20T11:17:56.597Z,30.18
2018-07-20T11:18:56.505Z,30.35
2018-07-20T11:19:56.415Z,31.00
2018-07-20T11:20:56.335Z,31.55
2018-07-20T11:21:56.258Z,32.00
2018-07-20T11:22:56.177Z,31.71
2018-07-20T11:23:56.099Z,31.87
2018-07-20T11:24:56.023Z,32.08
2018-07-20T11:25:56.022Z,32.53
2018-07-20T11:26:55.941Z,32.80
2018-07-20T11:27:55.878Z,33.02
2018-07-20T11:28:55.784Z,33.37
2018-07-20T11:29:55.703Z,33.57
2018-07-20T11:30:55.625Z,33.84
2018-07-20T11:31:55.546Z,33.49
2018-07-20T11:32:55.469Z,33.14
2018-07-20T11:33:55.378Z,33.19
2018-07-20T11:34:55.300Z,32.60
2018-07-20T11:35:55.222Z,32.30
2018-07-20T11:36:55.146Z,31.09
2018-07-20T11:37:55.068Z,30.75
2018-07-20T11:38:54.989Z,30.75
2018-07-20T11:39:54.910Z,30.63
2018-07-20T11:40:54.831Z,30.51
2018-07-20T11:41:54.778Z,30.47
2018-07-20T11:42:54.661Z,30.00
2018-07-20T11:43:54.583Z,30.02
2018-07-20T11:44:54.509Z,30.13
2018-07-20T11:45:54.416Z,30.02
2018-07-20T11:46:54.337Z,29.87
2018-07-20T11:47:54.259Z,29.88
2018-07-20T11:48:54.167Z,29.79
2018-07-20T11:49:54.114Z,29.82
2018-07-20T11:50:54.011Z,29.60
2018-07-20T11:51:53.919Z,29.49
2018-07-20T11:52:53.844Z,29.36
2018-07-20T11:53:53.765Z,29.20
2018-07-20T11:54:53.672Z,29.02
2018-07-20T11:55:53.633Z,28.96
2018-07-20T11:56:53.502Z,28.93
2018-07-20T11:57:53.424Z,28.75
2018-07-20T11:58:53.332Z,28.78
2018-07-20T11:59:53.254Z,28.49
2018-07-20T12:00:53.169Z,28.29
2018-07-20T12:01:53.111Z,28.14
2018-07-20T12:02:52.997Z,27.98
2018-07-20T12:03:52.918Z,27.98
2018-07-20T12:04:52.828Z,28.02
2018-07-20T12:05:52.749Z,28.12
2018-07-20T12:06:52.687Z,28.23
2018-07-20T12:07:52.583Z,28.37
2018-07-20T12:08:52.488Z,28.33
2018-07-20T12:09:52.396Z,28.22
2018-07-20T12:10:52.317Z,28.27
2018-07-20T12:11:52.228Z,28.49
2018-07-20T12:12:52.152Z,29.08
2018-07-20T12:13:52.059Z,29.51
2018-07-20T12:14:51.971Z,29.73
2018-07-20T12:15:51.891Z,29.61
2018-07-20T12:16:51.798Z,29.59
2018-07-20T12:17:51.719Z,29.50
2018-07-20T12:18:51.674Z,28.91
2018-07-20T12:19:51.552Z,29.02
2018-07-20T12:20:51.460Z,28.96
2018-07-20T12:21:51.382Z,29.04
2018-07-20T12:22:51.291Z,28.78
2018-07-20T12:23:51.201Z,28.85
2018-07-20T12:24:51.125Z,29.22
2018-07-20T12:25:51.045Z,29.38
2018-07-20T12:26:50.955Z,29.69
2018-07-20T12:27:50.864Z,29.79
2018-07-20T12:28:50.783Z,29.87
2018-07-20T12:29:50.693Z,29.88
2018-07-20T12:30:50.615Z,29.84
2018-07-20T12:31:50.530Z,29.76
2018-07-20T12:32:50.447Z,29.56
2018-07-20T12:33:50.357Z,29.71
2018-07-20T12:34:50.278Z,29.47
2018-07-20T12:35:50.187Z,29.44
2018-07-20T12:36:50.098Z,29.14
2018-07-20T12:37:50.020Z,29.05
2018-07-20T12:38:49.927Z,28.89
2018-07-20T12:39:49.849Z,28.98
2018-07-20T12:40:49.756Z,29.13
2018-07-20T12:41:49.667Z,29.23
2018-07-20T12:42:49.609Z,29.38
2018-07-20T12:43:49.499Z,29.44
2018-07-20T12:44:49.422Z,29.47
2018-07-20T12:45:49.329Z,29.17
2018-07-20T12:46:49.249Z,29.13
2018-07-20T12:47:49.161Z,28.94
2018-07-20T12:48:49.080Z,28.82
2018-07-20T12:49:48.989Z,28.85
2018-07-20T12:50:48.900Z,28.69
2018-07-20T12:51:48.808Z,28.78